createdAt,value
2018-06-14T00:01:17.090Z,6.57
2018-06-14T00:03:45.883Z,5.43
2018-06-14T00:06:14.342Z,4.73
2018-06-14T00:08:43.130Z,6.50
2018-06-14T00:11:11.900Z,3.63
2018-06-14T00:13:40.316Z,4.20
2018-06-14T00:16:09.216Z,3.67
2018-06-14T00:18:37.929Z,5.20
2018-06-14T00:21:06.695Z,5.20
2018-06-14T00:23:35.114Z,4.63
2018-06-14T00:26:03.492Z,3.40
2018-06-14T00:28:32.341Z,3.80
2018-06-14T00:31:01.084Z,2.90
2018-06-14T00:33:29.473Z,5.67
2018-06-14T00:35:57.849Z,3.70
2018-06-14T00:38:26.635Z,4.40
2018-06-14T00:40:55.469Z,2.90
2018-06-14T00:43:23.843Z,3.53
2018-06-14T00:45:52.747Z,3.17
2018-06-14T00:48:21.595Z,4.30
2018-06-14T00:50:50.321Z,4.30
2018-06-14T00:53:18.866Z,4.17
2018-06-14T00:55:47.601Z,9.63
2018-06-14T00:58:15.965Z,4.40
2018-06-14T01:00:44.405Z,7.07
2018-06-14T01:03:13.320Z,5.30
2018-06-14T01:05:42.088Z,4.97
2018-06-14T01:10:40.039Z,6.20
2018-06-14T01:13:08.798Z,5.53
2018-06-14T01:15:37.536Z,7.33
2018-06-14T01:18:06.378Z,4.10
2018-06-14T01:20:35.175Z,8.17
2018-06-14T01:23:03.935Z,5.13
2018-06-14T01:25:32.372Z,4.63
2018-06-14T01:28:01.243Z,6.50
2018-06-14T01:30:29.631Z,5.03
2018-06-14T01:32:57.999Z,9.43
2018-06-14T01:35:26.791Z,6.83
2018-06-14T01:38:00.707Z,5.77
2018-06-14T01:40:29.474Z,3.93
2018-06-14T01:42:57.894Z,8.10
2018-06-14T01:45:26.715Z,6.17
2018-06-14T01:47:55.129Z,6.97
2018-06-14T01:50:23.903Z,5.73
2018-06-14T01:52:52.285Z,7.93
2018-06-14T01:55:20.692Z,10.33
2018-06-14T01:57:49.062Z,5.63
2018-06-14T02:00:17.954Z,5.27
2018-06-14T02:02:46.689Z,8.10
2018-06-14T02:05:15.433Z,5.17
2018-06-14T02:07:43.828Z,4.67
2018-06-14T02:10:12.173Z,6.43
2018-06-14T02:12:40.937Z,6.50
2018-06-14T02:15:09.290Z,5.10
2018-06-14T02:17:38.090Z,8.43
2018-06-14T02:20:07.023Z,6.80
2018-06-14T02:22:35.419Z,7.90
2018-06-14T02:25:04.694Z,5.73
2018-06-14T02:27:33.058Z,5.00
2018-06-14T02:30:01.447Z,9.20
2018-06-14T02:32:30.385Z,6.03
2018-06-14T02:34:59.219Z,4.70
2018-06-14T02:37:27.648Z,6.63
2018-06-14T02:39:56.412Z,5.73
2018-06-14T02:42:25.247Z,7.47
2018-06-14T02:44:54.051Z,5.53
2018-06-14T02:47:22.825Z,6.10
2018-06-14T02:49:51.205Z,5.17
2018-06-14T02:52:20.132Z,6.03
2018-06-14T02:54:48.498Z,7.93
2018-06-14T02:57:16.902Z,6.13
2018-06-14T02:59:45.786Z,6.53
2018-06-14T03:02:14.165Z,6.80
2018-06-14T03:04:42.922Z,6.33
2018-06-14T03:07:11.831Z,7.03
2018-06-14T03:09:40.568Z,5.60
2018-06-14T03:12:09.314Z,5.43
2018-06-14T03:14:37.704Z,7.37
2018-06-14T03:17:06.199Z,6.70
2018-06-14T03:19:34.954Z,9.20
2018-06-14T03:22:03.839Z,5.57
2018-06-14T03:24:32.277Z,8.67
2018-06-14T03:27:00.621Z,6.83
2018-06-14T03:29:29.440Z,6.23
2018-06-14T03:31:58.434Z,5.97
2018-06-14T03:34:27.239Z,7.13
2018-06-14T03:36:55.635Z,6.43
2018-06-14T03:39:24.042Z,7.47
2018-06-14T03:41:52.836Z,7.40
2018-06-14T03:44:21.606Z,13.57
2018-06-14T03:46:50.205Z,6.07
2018-06-14T03:49:18.976Z,8.20
2018-06-14T03:51:47.746Z,7.90
2018-06-14T03:54:16.510Z,9.80
2018-06-14T03:56:44.956Z,7.67
2018-06-14T03:59:13.693Z,5.97
2018-06-14T04:01:42.042Z,5.67
2018-06-14T04:04:10.835Z,5.70
2018-06-14T04:06:39.194Z,9.80
2018-06-14T04:09:09.327Z,6.97
2018-06-14T04:11:38.098Z,6.60
2018-06-14T04:14:07.002Z,9.27
2018-06-14T04:16:35.925Z,5.67
2018-06-14T04:19:04.880Z,5.90
2018-06-14T04:21:33.674Z,7.93
2018-06-14T04:24:02.726Z,7.40
2018-06-14T04:26:31.085Z,7.97
2018-06-14T04:28:59.804Z,5.43
2018-06-14T04:31:28.216Z,5.77
2018-06-14T04:33:56.587Z,6.27
2018-06-14T04:36:24.990Z,8.17
2018-06-14T04:38:53.717Z,5.27
2018-06-14T04:41:22.082Z,6.23
2018-06-14T04:43:50.446Z,6.37
2018-06-14T04:46:19.267Z,7.63
2018-06-14T04:48:47.655Z,7.43
2018-06-14T04:51:16.164Z,7.53
2018-06-14T04:53:44.922Z,7.13
2018-06-14T04:56:14.301Z,7.90
2018-06-14T04:58:42.701Z,5.13
2018-06-14T05:01:21.080Z,10.60
2018-06-14T05:03:50.202Z,6.47
2018-06-14T05:06:18.591Z,5.60
2018-06-14T05:08:46.963Z,5.00
2018-06-14T05:21:14.133Z,5.90
2018-06-14T05:26:10.497Z,4.43
2018-06-14T05:28:39.291Z,8.50
2018-06-14T05:31:07.667Z,5.87
2018-06-14T05:33:36.463Z,7.43
2018-06-14T05:36:04.825Z,6.57
2018-06-14T05:38:33.626Z,9.87
2018-06-14T05:41:01.996Z,4.27
2018-06-14T05:43:30.754Z,10.27
2018-06-14T05:45:59.201Z,5.83
2018-06-14T05:48:27.583Z,6.03
2018-06-14T05:50:55.992Z,9.00
2018-06-14T05:53:24.719Z,6.03
2018-06-14T05:55:53.123Z,9.90
2018-06-14T05:58:21.596Z,10.90
2018-06-14T06:00:50.377Z,7.23
2018-06-14T06:03:19.984Z,7.17
2018-06-14T06:55:06.575Z,7.77
2018-06-14T06:57:35.365Z,5.83
2018-06-14T07:00:05.103Z,7.93
2018-06-14T07:02:33.837Z,8.23
2018-06-14T07:05:02.257Z,6.90
2018-06-14T07:07:31.057Z,8.43
2018-06-14T07:10:00.104Z,10.90
2018-06-14T07:12:28.935Z,9.47
2018-06-14T07:14:57.836Z,9.40
2018-06-14T07:17:26.569Z,6.70
2018-06-14T07:19:54.960Z,8.20
2018-06-14T07:22:23.326Z,8.67
2018-06-14T07:24:52.106Z,9.97
2018-06-14T07:34:43.936Z,9.67
2018-06-14T07:37:12.300Z,10.13
2018-06-14T07:42:09.025Z,11.55
2018-06-14T07:44:37.935Z,9.80
2018-06-14T07:47:06.300Z,9.93
2018-06-14T07:49:35.068Z,7.17
2018-06-14T07:52:03.467Z,10.67
2018-06-14T07:54:31.880Z,10.03
2018-06-14T07:57:00.666Z,7.23
2018-06-14T07:59:29.026Z,12.10
2018-06-14T08:01:57.404Z,15.00
2018-06-14T08:04:26.176Z,10.43
2018-06-14T08:06:54.944Z,9.23
2018-06-14T08:09:23.736Z,12.13
2018-06-14T08:11:52.153Z,9.50
2018-06-14T08:14:20.944Z,12.03
2018-06-14T08:16:50.835Z,13.80
2018-06-14T08:19:20.122Z,10.40
2018-06-14T08:21:48.503Z,9.10
2018-06-14T08:24:17.251Z,11.77
2018-06-14T08:26:46.235Z,11.77
2018-06-14T08:29:14.667Z,12.10
2018-06-14T08:31:43.436Z,10.30
2018-06-14T08:34:12.308Z,10.33
2018-06-14T08:36:40.670Z,8.33
2018-06-14T08:39:09.729Z,12.73
2018-06-14T08:41:38.656Z,9.53
2018-06-14T08:44:07.124Z,10.03
2018-06-14T08:46:35.879Z,12.23
2018-06-14T08:49:04.276Z,12.10
2018-06-14T08:51:33.245Z,11.73
2018-06-14T08:54:01.625Z,12.77
2018-06-14T08:56:30.018Z,10.50
2018-06-14T08:58:58.405Z,11.20
2018-06-14T09:01:27.176Z,10.97
2018-06-14T09:03:55.908Z,9.00
2018-06-14T09:06:24.549Z,8.73
2018-06-14T09:08:53.319Z,12.33
2018-06-14T09:11:22.082Z,12.17
2018-06-14T09:13:51.763Z,10.77
2018-06-14T09:16:20.790Z,8.30
2018-06-14T09:18:49.506Z,10.97
2018-06-14T09:21:18.361Z,8.47
2018-06-14T09:23:47.152Z,10.93
2018-06-14T09:26:16.550Z,8.47
2018-06-14T09:28:45.814Z,7.80
2018-06-14T09:31:14.345Z,11.90
2018-06-14T09:33:44.094Z,7.63
2018-06-14T09:36:12.855Z,8.00
2018-06-14T09:38:41.231Z,8.70
2018-06-14T09:41:09.595Z,8.03
2018-06-14T09:43:38.330Z,9.43
2018-06-14T09:46:06.718Z,8.03
2018-06-14T09:48:35.507Z,9.13
2018-06-14T09:51:04.664Z,6.50
2018-06-14T09:53:33.026Z,7.73
2018-06-14T09:56:01.842Z,9.73
2018-06-14T09:58:30.585Z,8.37
2018-06-14T10:01:15.111Z,7.50
2018-06-14T10:03:43.524Z,8.83
2018-06-14T10:06:11.972Z,8.40
2018-06-14T10:08:40.700Z,11.57
2018-06-14T10:16:05.485Z,10.37
2018-06-14T10:18:34.248Z,9.77
2018-06-14T10:21:02.993Z,7.93
2018-06-14T10:23:31.788Z,8.57
2018-06-14T10:26:00.548Z,7.97
2018-06-14T10:28:29.105Z,7.00
2018-06-14T10:30:57.878Z,7.43
2018-06-14T10:33:26.611Z,8.23
2018-06-14T10:35:55.816Z,6.03
2018-06-14T10:38:24.228Z,7.30
2018-06-14T10:40:52.818Z,6.63
2018-06-14T10:43:21.569Z,7.97
2018-06-14T10:45:50.310Z,4.70
2018-06-14T10:48:19.087Z,6.50
2018-06-14T10:50:47.494Z,6.93
2018-06-14T10:53:16.267Z,5.67
2018-06-14T10:55:45.059Z,10.93
2018-06-14T10:58:13.445Z,6.97
2018-06-14T11:00:42.332Z,6.07
2018-06-14T11:03:11.085Z,5.90
2018-06-14T11:05:40.525Z,4.60
2018-06-14T11:08:10.268Z,8.43
2018-06-14T11:10:38.985Z,6.37
2018-06-14T11:13:07.816Z,5.47
2018-06-14T11:15:36.662Z,6.87
2018-06-14T11:18:05.459Z,6.17
2018-06-14T11:20:34.265Z,5.30
2018-06-14T11:23:03.070Z,6.17
2018-06-14T11:25:31.464Z,6.37
2018-06-14T11:27:59.850Z,5.23
2018-06-14T11:32:56.158Z,4.23
2018-06-14T11:35:24.967Z,10.00
2018-06-14T11:37:53.452Z,5.97
2018-06-14T11:40:21.823Z,5.50
2018-06-14T11:50:14.511Z,8.20
2018-06-14T11:52:43.285Z,7.90
2018-06-14T11:55:12.225Z,6.53
2018-06-14T11:57:41.008Z,4.10
2018-06-14T12:00:10.157Z,8.67
2018-06-14T12:02:39.692Z,4.77
2018-06-14T12:05:08.661Z,8.33
2018-06-14T12:07:37.477Z,5.60
2018-06-14T12:10:06.544Z,6.17
2018-06-14T12:12:35.230Z,6.67
2018-06-14T12:17:32.202Z,6.73
2018-06-14T12:20:00.896Z,6.40
2018-06-14T12:22:29.902Z,5.60
2018-06-14T12:24:58.701Z,6.10
2018-06-14T12:27:27.458Z,5.20
2018-06-14T12:29:55.855Z,6.43
2018-06-14T12:32:24.246Z,5.23
2018-06-14T12:34:52.623Z,7.80
2018-06-14T12:37:21.420Z,6.07
2018-06-14T12:39:50.173Z,4.83
2018-06-14T12:42:18.907Z,6.27
2018-06-14T12:44:47.677Z,6.07
2018-06-14T12:47:16.079Z,7.73
2018-06-14T12:49:44.457Z,4.10
2018-06-14T12:52:13.253Z,3.87
2018-06-14T12:54:42.031Z,4.87
2018-06-14T12:57:10.936Z,4.93
2018-06-14T12:59:39.656Z,4.37
2018-06-14T13:02:07.995Z,6.93
2018-06-14T13:04:36.783Z,4.30
2018-06-14T13:09:32.713Z,6.57
2018-06-14T13:12:01.492Z,6.13
2018-06-14T13:14:30.256Z,6.07
2018-06-14T13:16:58.983Z,3.77
2018-06-14T13:19:28.255Z,4.77
2018-06-14T13:21:56.642Z,4.17
2018-06-14T13:24:25.057Z,4.87
2018-06-14T13:26:53.494Z,4.37
2018-06-14T13:29:21.872Z,4.67
2018-06-14T13:31:50.694Z,4.00
2018-06-14T13:34:19.116Z,4.73
2018-06-14T13:36:48.009Z,7.23
2018-06-14T13:39:16.423Z,5.73
2018-06-14T13:41:45.176Z,4.90
2018-06-14T13:44:14.530Z,7.20
2018-06-14T13:46:43.300Z,4.70
2018-06-14T13:49:12.129Z,6.73
2018-06-14T13:51:41.277Z,10.10
2018-06-14T13:54:10.663Z,5.40
2018-06-14T13:56:39.021Z,5.57
2018-06-14T13:59:07.922Z,5.33
2018-06-14T14:01:36.657Z,8.87
2018-06-14T14:04:05.404Z,5.20
2018-06-14T14:06:34.170Z,8.67
2018-06-14T14:09:03.004Z,7.77
2018-06-14T14:11:31.406Z,6.90
2018-06-14T14:13:59.814Z,5.70
2018-06-14T14:16:28.221Z,6.97
2018-06-14T14:18:57.081Z,6.63
2018-06-14T14:21:25.867Z,6.83
2018-06-14T14:23:54.670Z,5.43
2018-06-14T14:26:23.643Z,10.17
2018-06-14T14:28:52.372Z,7.13
2018-06-14T14:31:21.201Z,6.97
2018-06-14T14:33:49.951Z,6.77
2018-06-14T14:36:18.377Z,8.23
2018-06-14T14:38:47.209Z,7.23
2018-06-14T14:41:15.608Z,9.23
2018-06-14T14:43:44.361Z,5.67
2018-06-14T14:46:13.109Z,7.27
2018-06-14T14:48:42.313Z,5.73
2018-06-14T14:51:11.085Z,5.57
2018-06-14T14:53:39.833Z,4.63
2018-06-14T14:56:08.621Z,6.33
2018-06-14T14:58:37.461Z,4.83
2018-06-14T15:01:06.284Z,9.47
2018-06-14T15:03:34.638Z,14.17
2018-06-14T15:06:03.433Z,5.83
2018-06-14T15:08:31.824Z,6.73
2018-06-14T15:11:00.640Z,7.50
2018-06-14T15:13:29.373Z,5.70
2018-06-14T15:15:58.100Z,5.30
2018-06-14T15:18:26.515Z,5.93
2018-06-14T15:20:54.893Z,8.03
2018-06-14T15:23:23.682Z,6.63
2018-06-14T15:25:52.423Z,6.40
2018-06-14T15:28:21.240Z,8.57
2018-06-14T15:30:49.642Z,8.30
2018-06-14T15:33:18.466Z,8.27
2018-06-14T15:35:47.245Z,6.47
2018-06-14T15:38:16.049Z,18.30
2018-06-14T15:40:44.458Z,12.00
2018-06-14T15:43:13.275Z,8.77
2018-06-14T15:45:41.640Z,9.60
2018-06-14T15:48:10.440Z,8.17
2018-06-14T15:50:39.223Z,7.87
2018-06-14T15:53:08.035Z,8.63
2018-06-14T15:56:09.392Z,8.77
2018-06-14T15:58:38.181Z,9.13
2018-06-14T16:01:07.492Z,8.17
2018-06-14T16:03:35.884Z,7.60
2018-06-14T16:06:04.712Z,9.93
2018-06-14T16:08:33.472Z,8.03
2018-06-14T16:11:01.856Z,10.50
2018-06-14T16:13:30.721Z,8.13
2018-06-14T16:15:59.498Z,11.70
2018-06-14T16:18:27.908Z,7.83
2018-06-14T16:20:56.688Z,7.27
2018-06-14T16:23:25.423Z,9.07
2018-06-14T16:25:53.778Z,6.00
2018-06-14T16:28:22.181Z,10.17
2018-06-14T16:30:50.532Z,9.50
2018-06-14T16:33:19.353Z,10.13
2018-06-14T16:35:47.741Z,9.87
2018-06-14T16:38:16.526Z,8.77
2018-06-14T16:40:49.868Z,12.83
2018-06-14T16:43:18.973Z,9.10
2018-06-14T16:45:47.378Z,11.10
2018-06-14T16:48:16.131Z,9.70
2018-06-14T16:50:44.519Z,10.53
2018-06-14T16:53:12.947Z,14.67
2018-06-14T16:55:41.364Z,13.63
2018-06-14T16:58:10.153Z,15.47
2018-06-14T17:00:49.856Z,15.60
2018-06-14T17:03:18.726Z,17.07
2018-06-14T17:05:47.548Z,13.97
2018-06-14T17:08:16.675Z,16.73
2018-06-14T17:10:45.953Z,16.57
2018-06-14T17:15:42.355Z,18.10
2018-06-14T17:18:11.130Z,17.73
2018-06-14T17:20:39.512Z,18.20
2018-06-14T17:23:08.311Z,19.50
2018-06-14T17:25:37.195Z,19.97
2018-06-14T17:28:05.749Z,17.83
2018-06-14T17:30:34.124Z,19.20
2018-06-14T17:33:02.570Z,17.37
2018-06-14T17:35:31.373Z,18.90
2018-06-14T17:45:23.299Z,18.95
2018-06-14T17:47:51.715Z,17.73
2018-06-14T17:50:20.128Z,19.97
2018-06-14T17:52:48.489Z,17.57
2018-06-14T17:55:16.917Z,18.43
2018-06-14T17:57:45.710Z,16.13
2018-06-14T18:00:14.139Z,20.30
2018-06-14T18:02:42.915Z,25.03
2018-06-14T18:05:11.341Z,22.73
2018-06-14T18:07:40.184Z,18.73
2018-06-14T18:10:08.203Z,18.73
2018-06-14T18:12:37.012Z,19.27
2018-06-14T18:15:05.841Z,19.43
2018-06-14T18:17:34.640Z,17.50
2018-06-14T18:20:03.468Z,16.87
2018-06-14T18:22:32.497Z,16.20
2018-06-14T18:25:01.128Z,17.17
2018-06-14T18:27:29.996Z,17.33
2018-06-14T18:29:58.842Z,17.57
2018-06-14T18:32:27.311Z,18.03
2018-06-14T18:34:56.110Z,20.40
2018-06-14T18:37:25.628Z,18.77
2018-06-14T18:39:54.702Z,18.30
2018-06-14T18:42:23.387Z,19.97
2018-06-14T18:44:52.070Z,21.80
2018-06-14T18:47:20.527Z,18.33
2018-06-14T18:49:49.007Z,16.77
2018-06-14T18:52:17.872Z,19.00
2018-06-14T18:54:46.350Z,15.83
2018-06-14T18:57:14.859Z,18.07
2018-06-14T18:59:43.876Z,17.23
2018-06-14T19:02:12.249Z,17.50
2018-06-14T19:04:41.228Z,20.97
2018-06-14T19:07:09.663Z,15.50
2018-06-14T19:09:39.614Z,15.67
2018-06-14T19:12:08.535Z,15.23
2018-06-14T19:14:37.372Z,17.37
2018-06-14T19:17:05.849Z,15.20
2018-06-14T19:19:34.241Z,14.27
2018-06-14T19:22:02.995Z,13.87
2018-06-14T19:24:31.902Z,16.07
2018-06-14T19:27:00.568Z,16.47
2018-06-14T19:29:29.613Z,16.50
2018-06-14T19:31:58.551Z,16.37
2018-06-14T19:34:27.228Z,17.80
2018-06-14T19:36:55.647Z,16.13
2018-06-14T19:39:24.568Z,17.63
2018-06-14T19:41:52.946Z,18.07
2018-06-14T19:44:21.327Z,15.60
2018-06-14T19:46:50.144Z,14.30
2018-06-14T19:49:23.452Z,16.63
2018-06-14T19:51:51.931Z,17.40
2018-06-14T19:54:20.630Z,15.37
2018-06-14T19:56:49.378Z,16.57
2018-06-14T19:59:17.860Z,19.00
2018-06-14T20:01:46.818Z,19.43
2018-06-14T20:04:15.585Z,20.10
2018-06-14T20:06:44.556Z,16.83
2018-06-14T20:09:12.953Z,20.60
2018-06-14T20:11:41.736Z,18.23
2018-06-14T20:14:10.538Z,19.93
2018-06-14T20:16:39.218Z,18.53
2018-06-14T20:19:08.174Z,18.40
2018-06-14T20:21:36.531Z,17.63
2018-06-14T20:24:05.203Z,17.50
2018-06-14T20:26:33.736Z,16.67
2018-06-14T20:29:02.116Z,18.93
2018-06-14T20:31:30.489Z,17.90
2018-06-14T20:33:59.346Z,18.03
2018-06-14T20:36:27.768Z,15.60
2018-06-14T20:38:56.558Z,15.37
2018-06-14T20:41:24.986Z,16.70
2018-06-14T20:43:53.387Z,16.13
2018-06-14T20:46:22.184Z,16.57
2018-06-14T20:48:50.639Z,16.97
2018-06-14T20:51:19.413Z,17.70
2018-06-14T20:53:47.769Z,15.93
2018-06-14T20:56:16.556Z,16.80
2018-06-14T20:58:44.973Z,14.50
2018-06-14T21:01:19.722Z,16.27
2018-06-14T21:03:48.558Z,20.13
2018-06-14T21:06:16.953Z,17.33
2018-06-14T21:08:45.355Z,20.57
2018-06-14T21:11:14.132Z,16.87
2018-06-14T21:13:42.980Z,16.63
2018-06-14T21:16:11.422Z,19.20
2018-06-14T21:18:40.275Z,17.97
2018-06-14T21:21:09.100Z,18.67
2018-06-14T21:23:37.661Z,18.33
2018-06-14T21:26:06.479Z,17.40
2018-06-14T21:28:34.866Z,19.37
2018-06-14T21:31:03.220Z,20.23
2018-06-14T21:33:31.945Z,17.13
2018-06-14T21:36:00.803Z,19.23
2018-06-14T21:38:29.203Z,19.77
2018-06-14T21:40:58.057Z,22.40
2018-06-14T21:43:27.270Z,21.40
2018-06-14T21:45:56.054Z,21.67
2018-06-14T21:48:24.436Z,21.37
2018-06-14T21:50:53.225Z,24.33
2018-06-14T21:53:21.617Z,20.53
2018-06-14T21:55:50.480Z,18.37
2018-06-14T21:58:19.318Z,20.23
2018-06-14T22:00:56.235Z,22.63
2018-06-14T22:03:30.234Z,21.50
2018-06-14T22:05:58.946Z,27.90
2018-06-14T22:08:27.352Z,27.87
2018-06-14T22:10:56.154Z,24.10
2018-06-14T22:13:24.988Z,24.50
2018-06-14T22:15:53.767Z,25.70
2018-06-14T22:25:45.715Z,25.77
2018-06-14T22:28:14.513Z,22.80
2018-06-14T22:30:43.321Z,21.77
2018-06-14T22:33:23.229Z,27.63
2018-06-14T22:35:51.719Z,23.07
2018-06-14T22:38:20.585Z,24.20
2018-06-14T22:40:48.987Z,25.53
2018-06-14T22:43:17.368Z,24.87
2018-06-14T22:45:46.191Z,28.30
2018-06-14T22:48:14.574Z,31.17
2018-06-14T22:50:54.490Z,30.67
2018-06-14T22:53:23.262Z,33.00
2018-06-14T22:55:52.229Z,35.93
2018-06-14T22:58:20.625Z,35.83
2018-06-14T23:00:54.584Z,27.97
2018-06-14T23:03:23.694Z,29.33
2018-06-14T23:05:52.171Z,38.53
2018-06-14T23:08:20.557Z,32.23
2018-06-14T23:10:54.408Z,36.87
2018-06-14T23:13:22.791Z,33.87
2018-06-14T23:15:51.174Z,34.67
2018-06-14T23:18:19.620Z,35.67
2018-06-14T23:20:48.397Z,33.43
2018-06-14T23:23:18.043Z,36.07
2018-06-14T23:25:46.794Z,36.00
2018-06-14T23:28:15.176Z,36.47
2018-06-14T23:30:43.983Z,36.60
2018-06-14T23:33:12.337Z,35.77
2018-06-14T23:35:41.146Z,38.50
2018-06-14T23:38:09.529Z,40.03
2018-06-14T23:40:37.894Z,38.13
2018-06-14T23:43:06.279Z,40.47
2018-06-14T23:45:34.673Z,42.27
2018-06-14T23:48:03.409Z,44.03
2018-06-14T23:50:31.925Z,51.07
2018-06-14T23:53:00.671Z,47.30
2018-06-14T23:55:29.412Z,43.33
2018-06-14T23:57:58.231Z,43.20
